createdAt,value
2022-09-20T00:04:49.854Z,10.46
2022-09-20T00:09:52.394Z,10.23
2022-09-20T00:14:54.792Z,9.99
2022-09-20T00:19:57.238Z,10.01
2022-09-20T00:24:59.716Z,10.08
2022-09-20T00:30:02.199Z,10.11
2022-09-20T00:35:07.952Z,10.24
2022-09-20T00:40:14.725Z,10.10
2022-09-20T00:45:24.146Z,10.40
2022-09-20T00:50:48.231Z,10.37
2022-09-20T00:55:52.774Z,10.29
2022-09-20T01:00:57.407Z,10.44
2022-09-20T01:06:03.646Z,10.65
2022-09-20T01:11:06.073Z,10.95
2022-09-20T01:16:08.880Z,10.86
2022-09-20T01:21:11.300Z,10.49
2022-09-20T01:26:16.619Z,10.47
2022-09-20T01:31:29.942Z,10.30
2022-09-20T01:36:38.268Z,10.54
2022-09-20T01:41:42.413Z,10.14
2022-09-20T01:46:46.888Z,10.01
2022-09-20T01:51:55.009Z,9.86
2022-09-20T01:57:12.330Z,9.79
2022-09-20T02:02:22.731Z,10.04
2022-09-20T02:07:43.242Z,10.01
2022-09-20T02:12:59.328Z,9.91
2022-09-20T02:18:19.891Z,9.91
2022-09-20T02:23:43.398Z,9.57
2022-09-20T02:28:51.764Z,9.65
2022-09-20T02:34:15.773Z,9.37
2022-09-20T02:39:23.061Z,9.60
2022-09-20T02:44:34.628Z,9.51
2022-09-20T02:49:47.234Z,9.27
2022-09-20T02:54:58.376Z,9.46
2022-09-20T03:00:26.977Z,9.40
2022-09-20T03:05:50.950Z,9.74
2022-09-20T03:11:17.148Z,9.94
2022-09-20T03:16:27.862Z,9.82
2022-09-20T03:21:36.445Z,9.83
2022-09-20T03:26:42.659Z,9.68
2022-09-20T03:31:49.135Z,9.55
2022-09-20T03:36:54.750Z,9.41
2022-09-20T03:42:27.210Z,9.48
2022-09-20T03:47:46.921Z,9.37
2022-09-20T03:52:58.488Z,9.56
2022-09-20T03:58:21.097Z,9.68
2022-09-20T04:03:53.530Z,9.76
2022-09-20T04:09:16.216Z,9.75
2022-09-20T04:14:33.947Z,9.48
2022-09-20T04:19:42.298Z,9.85
2022-09-20T04:24:54.723Z,10.08
2022-09-20T04:30:06.136Z,10.20
2022-09-20T04:35:59.043Z,10.28
2022-09-20T04:41:06.980Z,10.00
2022-09-20T04:46:24.539Z,10.30
2022-09-20T04:51:51.348Z,10.38
2022-09-20T04:57:47.408Z,10.22
2022-09-20T05:03:00.304Z,10.34
2022-09-20T05:08:14.890Z,10.38
2022-09-20T05:13:34.754Z,10.61
2022-09-20T05:19:04.100Z,10.46
2022-09-20T05:24:24.702Z,10.75
2022-09-20T05:29:42.496Z,10.79
2022-09-20T05:34:44.830Z,10.89
2022-09-20T05:39:54.708Z,10.84
2022-09-20T05:45:21.684Z,11.21
2022-09-20T05:50:53.857Z,11.05
2022-09-20T05:56:23.091Z,11.32
2022-09-20T06:01:35.481Z,11.16
2022-09-20T06:06:52.946Z,11.18
2022-09-20T06:12:12.704Z,11.16
2022-09-20T06:17:37.846Z,10.90
2022-09-20T06:22:47.318Z,11.31
2022-09-20T06:27:57.157Z,11.56
2022-09-20T06:33:01.634Z,11.50
2022-09-20T06:38:25.511Z,11.30
2022-09-20T06:43:31.589Z,11.44
2022-09-20T06:48:34.470Z,11.30
2022-09-20T06:53:39.804Z,11.31
2022-09-20T06:58:42.355Z,11.50
2022-09-20T07:03:44.706Z,12.12
2022-09-20T07:08:47.634Z,12.39
2022-09-20T07:13:55.275Z,12.59
2022-09-20T07:18:57.971Z,12.93
2022-09-20T07:24:02.051Z,13.09
2022-09-20T07:29:04.562Z,13.39
2022-09-20T07:34:06.927Z,13.66
2022-09-20T07:39:09.237Z,13.43
2022-09-20T07:44:28.001Z,13.18
2022-09-20T07:49:30.516Z,13.53
2022-09-20T07:54:32.923Z,14.17
2022-09-20T07:59:35.420Z,14.31
2022-09-20T08:04:37.774Z,14.58
2022-09-20T08:09:40.145Z,14.76
2022-09-20T08:14:42.516Z,14.59
2022-09-20T08:19:45.209Z,14.58
2022-09-20T08:24:47.565Z,15.04
2022-09-20T08:29:50.228Z,15.45
2022-09-20T08:34:52.617Z,15.79
2022-09-20T08:39:57.923Z,15.63
2022-09-20T08:45:06.788Z,15.61
2022-09-20T08:50:17.284Z,15.74
2022-09-20T08:55:28.122Z,15.65
2022-09-20T09:00:33.301Z,15.98
2022-09-20T09:05:47.615Z,16.33
2022-09-20T09:10:55.212Z,17.15
2022-09-20T09:16:00.925Z,16.91
2022-09-20T09:21:05.124Z,16.11
2022-09-20T09:26:16.238Z,15.99
2022-09-20T09:31:26.855Z,15.68
2022-09-20T09:36:29.420Z,15.52
2022-09-20T09:41:35.795Z,15.54
2022-09-20T09:46:43.451Z,16.60
2022-09-20T09:52:04.168Z,17.24
2022-09-20T09:57:16.139Z,16.62
2022-09-20T10:02:36.924Z,16.64
2022-09-20T10:07:52.165Z,16.30
2022-09-20T10:13:22.351Z,16.35
2022-09-20T10:18:49.406Z,17.32
2022-09-20T10:24:17.007Z,17.44
2022-09-20T10:29:46.595Z,17.17
2022-09-20T10:35:02.109Z,16.92
2022-09-20T10:40:46.650Z,17.99
2022-09-20T10:51:46.737Z,19.22
2022-09-20T10:56:52.310Z,19.16
2022-09-20T11:02:06.882Z,18.31
2022-09-20T11:07:30.267Z,18.92
2022-09-20T11:12:50.199Z,18.59
2022-09-20T11:18:14.551Z,17.66
2022-09-20T11:23:23.749Z,17.97
2022-09-20T11:28:32.708Z,18.41
2022-09-20T11:33:44.000Z,18.55
2022-09-20T11:38:53.099Z,18.73
2022-09-20T11:44:00.589Z,18.69
2022-09-20T11:49:12.424Z,18.83
2022-09-20T11:54:27.895Z,19.25
2022-09-20T11:59:40.547Z,18.94
2022-09-20T12:04:46.036Z,18.98
2022-09-20T12:10:00.936Z,19.24
2022-09-20T12:15:07.042Z,19.66
2022-09-20T12:20:39.911Z,19.93
2022-09-20T12:26:03.305Z,19.68
2022-09-20T12:31:29.692Z,19.94
2022-09-20T12:36:36.292Z,16.94
2022-09-20T12:42:06.443Z,14.60
2022-09-20T12:47:11.380Z,14.20
2022-09-20T12:52:47.364Z,14.48
2022-09-20T12:58:14.446Z,14.48
2022-09-20T13:03:21.794Z,14.32
2022-09-20T13:08:28.160Z,14.43
2022-09-20T13:13:41.361Z,14.65
2022-09-20T13:18:44.006Z,14.72
2022-09-20T13:23:51.020Z,15.07
2022-09-20T13:28:56.179Z,15.72
2022-09-20T13:34:23.394Z,16.37
2022-09-20T13:39:31.635Z,16.36
2022-09-20T13:44:35.210Z,16.01
2022-09-20T13:49:43.886Z,15.63
2022-09-20T13:54:46.527Z,15.66
2022-09-20T13:59:49.403Z,15.75
2022-09-20T14:04:54.700Z,15.92
2022-09-20T14:09:58.302Z,15.46
2022-09-20T14:15:11.486Z,15.19
2022-09-20T14:20:15.957Z,15.08
2022-09-20T14:25:28.126Z,15.25
2022-09-20T14:30:33.240Z,15.96
2022-09-20T14:35:35.655Z,16.09
2022-09-20T14:40:48.713Z,15.63
2022-09-20T14:46:00.694Z,15.64
2022-09-20T14:51:12.761Z,15.72
2022-09-20T14:56:16.290Z,15.70
2022-09-20T15:01:26.089Z,16.30
2022-09-20T15:06:28.425Z,16.64
2022-09-20T15:11:30.795Z,16.93
2022-09-20T15:16:36.299Z,16.54
2022-09-20T15:21:39.098Z,16.38
2022-09-20T15:26:41.462Z,16.39
2022-09-20T15:31:48.217Z,16.01
2022-09-20T15:36:50.919Z,15.76
2022-09-20T15:41:53.839Z,15.35
2022-09-20T15:46:56.447Z,15.15
2022-09-20T15:51:58.846Z,14.91
2022-09-20T15:57:01.297Z,14.82
2022-09-20T16:02:03.874Z,14.67
2022-09-20T16:07:09.541Z,14.40
2022-09-20T16:12:12.043Z,14.08
2022-09-20T16:17:15.206Z,13.59
2022-09-20T16:22:19.437Z,13.51
2022-09-20T16:27:21.886Z,13.35
2022-09-20T16:32:24.302Z,13.21
2022-09-20T16:37:26.753Z,13.16
2022-09-20T16:42:29.509Z,13.10
2022-09-20T16:47:31.819Z,12.96
2022-09-20T16:52:35.906Z,12.74
2022-09-20T16:57:38.522Z,12.64
2022-09-20T17:02:44.572Z,12.52
2022-09-20T17:07:49.549Z,12.54
2022-09-20T17:12:57.701Z,12.54
2022-09-20T17:18:00.266Z,12.66
2022-09-20T17:23:02.981Z,12.63
2022-09-20T17:28:05.347Z,12.40
2022-09-20T17:33:08.034Z,12.41
2022-09-20T17:38:10.598Z,12.26
2022-09-20T17:43:12.879Z,12.06
2022-09-20T17:48:15.714Z,11.82
2022-09-20T17:53:18.169Z,11.75
2022-09-20T17:58:20.610Z,11.79
2022-09-20T18:03:24.107Z,11.78
2022-09-20T18:08:26.485Z,11.64
2022-09-20T18:13:30.412Z,11.76
2022-09-20T18:18:33.212Z,11.77
2022-09-20T18:23:35.554Z,11.81
2022-09-20T18:28:38.091Z,11.81
2022-09-20T18:33:41.153Z,11.54
2022-09-20T18:38:46.986Z,11.35
2022-09-20T18:43:49.286Z,11.31
2022-09-20T18:48:55.903Z,11.42
2022-09-20T18:53:58.752Z,11.20
2022-09-20T18:59:09.408Z,11.17
2022-09-20T19:04:33.736Z,11.10
2022-09-20T19:10:03.910Z,11.04
2022-09-20T19:15:08.985Z,11.00
2022-09-20T19:20:51.717Z,10.93
2022-09-20T19:26:24.569Z,10.98
2022-09-20T19:31:32.262Z,10.99
2022-09-20T19:36:57.980Z,11.14
2022-09-20T19:42:20.088Z,11.16
2022-09-20T19:47:34.510Z,11.17
2022-09-20T19:52:39.507Z,11.25
2022-09-20T19:57:47.239Z,11.19
2022-09-20T20:02:49.995Z,11.25
2022-09-20T20:08:13.643Z,11.30
2022-09-20T20:14:02.563Z,11.27
2022-09-20T20:19:30.894Z,11.06
2022-09-20T20:24:36.160Z,11.00
2022-09-20T20:29:38.525Z,10.86
2022-09-20T20:34:40.934Z,10.90
2022-09-20T20:39:43.335Z,10.80
2022-09-20T20:44:46.128Z,10.84
2022-09-20T20:49:52.507Z,10.80
2022-09-20T20:54:55.141Z,10.67
2022-09-20T20:59:57.575Z,10.64
2022-09-20T21:05:01.311Z,10.57
2022-09-20T21:10:03.887Z,10.66
2022-09-20T21:15:06.725Z,10.63
2022-09-20T21:20:09.867Z,10.51
2022-09-20T21:25:12.833Z,10.57
2022-09-20T21:30:15.384Z,10.50
2022-09-20T21:35:17.756Z,10.45
2022-09-20T21:40:20.046Z,10.59
2022-09-20T21:45:25.162Z,10.43
2022-09-20T21:50:27.413Z,10.48
2022-09-20T21:55:29.751Z,10.34
2022-09-20T22:00:32.097Z,10.33
2022-09-20T22:05:34.844Z,10.36
2022-09-20T22:10:37.156Z,10.34
2022-09-20T22:15:39.562Z,10.26
2022-09-20T22:20:41.965Z,10.22
2022-09-20T22:25:44.216Z,10.36
2022-09-20T22:30:46.576Z,10.37
2022-09-20T22:35:48.990Z,10.18
2022-09-20T22:40:55.972Z,9.97
2022-09-20T22:46:03.599Z,10.17
2022-09-20T22:51:11.936Z,10.12
2022-09-20T22:56:25.690Z,10.13
2022-09-20T23:01:30.378Z,10.14
2022-09-20T23:06:41.505Z,10.02
2022-09-20T23:11:44.438Z,10.25
2022-09-20T23:16:47.312Z,10.25
2022-09-20T23:21:49.764Z,10.04
2022-09-20T23:26:52.192Z,10.13
2022-09-20T23:31:54.494Z,10.26
2022-09-20T23:36:56.899Z,10.42
2022-09-20T23:41:59.513Z,10.37
2022-09-20T23:47:01.855Z,10.24
2022-09-20T23:52:04.551Z,10.17
2022-09-20T23:57:06.872Z,10.10
